sensor_id;sensor_type;location;lat;lon;timestamp;pressure;altitude;pressure_sealevel;temperature;humidity
75886;BME280;64561;44.018;10.144;2024-03-17T00:01:22;102145.13;;;10.58;100.00
75886;BME280;64561;44.018;10.144;2024-03-17T00:03:48;102150.25;;;10.58;100.00
75886;BME280;64561;44.018;10.144;2024-03-17T00:06:14;102149.28;;;10.56;100.00
75886;BME280;64561;44.018;10.144;2024-03-17T00:08:41;102153.22;;;10.47;100.00
75886;BME280;64561;44.018;10.144;2024-03-17T00:11:07;102158.81;;;10.40;100.00
75886;BME280;64561;44.018;10.144;2024-03-17T00:13:42;102161.25;;;10.37;100.00
75886;BME280;64561;44.018;10.144;2024-03-17T00:16:08;102165.78;;;10.43;100.00
75886;BME280;64561;44.018;10.144;2024-03-17T00:18:35;102162.56;;;10.47;100.00
75886;BME280;64561;44.018;10.144;2024-03-17T00:21:02;102156.41;;;10.43;100.00
75886;BME280;64561;44.018;10.144;2024-03-17T00:23:29;102168.91;;;10.37;100.00
75886;BME280;64561;44.018;10.144;2024-03-17T00:25:55;102160.19;;;10.32;100.00
75886;BME280;64561;44.018;10.144;2024-03-17T00:28:21;102158.91;;;10.24;100.00
75886;BME280;64561;44.018;10.144;2024-03-17T00:30:48;102156.78;;;10.15;100.00
75886;BME280;64561;44.018;10.144;2024-03-17T00:33:14;102166.28;;;10.18;100.00
75886;BME280;64561;44.018;10.144;2024-03-17T00:35:40;102165.47;;;10.19;100.00
75886;BME280;64561;44.018;10.144;2024-03-17T00:38:07;102168.69;;;10.15;100.00
75886;BME280;64561;44.018;10.144;2024-03-17T00:40:39;102165.72;;;10.05;100.00
75886;BME280;64561;44.018;10.144;2024-03-17T00:43:11;102162.56;;;9.93;100.00
75886;BME280;64561;44.018;10.144;2024-03-17T00:45:37;102164.31;;;9.94;100.00
75886;BME280;64561;44.018;10.144;2024-03-17T00:48:04;102157.38;;;9.92;100.00
75886;BME280;64561;44.018;10.144;2024-03-17T00:50:32;102155.34;;;10.02;100.00
75886;BME280;64561;44.018;10.144;2024-03-17T00:52:58;102145.75;;;9.98;100.00
75886;BME280;64561;44.018;10.144;2024-03-17T00:55:26;102155.47;;;10.05;100.00
75886;BME280;64561;44.018;10.144;2024-03-17T00:57:52;102147.97;;;10.08;100.00
75886;BME280;64561;44.018;10.144;2024-03-17T01:00:20;102146.41;;;10.12;100.00
75886;BME280;64561;44.018;10.144;2024-03-17T01:02:46;102143.41;;;10.03;100.00
75886;BME280;64561;44.018;10.144;2024-03-17T01:05:13;102158.69;;;10.01;100.00
75886;BME280;64561;44.018;10.144;2024-03-17T01:07:40;102154.38;;;10.00;100.00
75886;BME280;64561;44.018;10.144;2024-03-17T01:10:07;102148.59;;;10.04;100.00
75886;BME280;64561;44.018;10.144;2024-03-17T01:12:34;102142.84;;;10.08;100.00
75886;BME280;64561;44.018;10.144;2024-03-17T01:15:04;102150.72;;;10.13;100.00
75886;BME280;64561;44.018;10.144;2024-03-17T01:17:30;102150.72;;;10.13;100.00
75886;BME280;64561;44.018;10.144;2024-03-17T01:19:57;102150.28;;;10.04;100.00
75886;BME280;64561;44.018;10.144;2024-03-17T01:22:23;102146.84;;;10.03;100.00
75886;BME280;64561;44.018;10.144;2024-03-17T01:24:50;102152.94;;;10.05;100.00
75886;BME280;64561;44.018;10.144;2024-03-17T01:27:17;102151.28;;;10.07;100.00
75886;BME280;64561;44.018;10.144;2024-03-17T01:29:43;102153.22;;;10.12;100.00
75886;BME280;64561;44.018;10.144;2024-03-17T01:32:10;102153.84;;;10.07;100.00
75886;BME280;64561;44.018;10.144;2024-03-17T01:34:41;102152.63;;;9.99;100.00
75886;BME280;64561;44.018;10.144;2024-03-17T01:37:08;102159.06;;;9.91;100.00
75886;BME280;64561;44.018;10.144;2024-03-17T01:39:34;102149.41;;;9.85;100.00
75886;BME280;64561;44.018;10.144;2024-03-17T01:42:00;102153.06;;;9.91;100.00
75886;BME280;64561;44.018;10.144;2024-03-17T01:44:28;102150.81;;;9.97;100.00
75886;BME280;64561;44.018;10.144;2024-03-17T01:46:56;102142.31;;;9.98;100.00
75886;BME280;64561;44.018;10.144;2024-03-17T01:49:23;102148.25;;;9.97;100.00
75886;BME280;64561;44.018;10.144;2024-03-17T01:51:53;102144.97;;;9.99;100.00
75886;BME280;64561;44.018;10.144;2024-03-17T01:54:20;102146.72;;;10.00;100.00
75886;BME280;64561;44.018;10.144;2024-03-17T01:56:47;102150.94;;;10.00;100.00
75886;BME280;64561;44.018;10.144;2024-03-17T01:59:13;102154.97;;;9.95;100.00
75886;BME280;64561;44.018;10.144;2024-03-17T02:01:40;102157.50;;;9.95;100.00
75886;BME280;64561;44.018;10.144;2024-03-17T02:04:07;102171.38;;;9.82;100.00
75886;BME280;64561;44.018;10.144;2024-03-17T02:06:34;102176.22;;;9.59;100.00
75886;BME280;64561;44.018;10.144;2024-03-17T02:09:00;102179.53;;;9.57;100.00
75886;BME280;64561;44.018;10.144;2024-03-17T02:11:31;102188.06;;;9.57;100.00
75886;BME280;64561;44.018;10.144;2024-03-17T02:13:59;102190.22;;;9.50;100.00
75886;BME280;64561;44.018;10.144;2024-03-17T02:16:28;102186.25;;;9.55;100.00
75886;BME280;64561;44.018;10.144;2024-03-17T02:18:55;102172.50;;;9.53;100.00
75886;BME280;64561;44.018;10.144;2024-03-17T02:21:23;102192.53;;;9.61;100.00
75886;BME280;64561;44.018;10.144;2024-03-17T02:23:55;102176.84;;;9.54;100.00
75886;BME280;64561;44.018;10.144;2024-03-17T02:26:25;102181.50;;;9.62;100.00
75886;BME280;64561;44.018;10.144;2024-03-17T02:28:51;102157.47;;;9.59;100.00
75886;BME280;64561;44.018;10.144;2024-03-17T02:31:18;102154.84;;;9.57;100.00
75886;BME280;64561;44.018;10.144;2024-03-17T02:33:45;102160.03;;;9.59;100.00
75886;BME280;64561;44.018;10.144;2024-03-17T02:36:12;102157.97;;;9.52;100.00
75886;BME280;64561;44.018;10.144;2024-03-17T02:38:41;102167.34;;;9.51;100.00
75886;BME280;64561;44.018;10.144;2024-03-17T02:41:26;102156.66;;;9.42;100.00
75886;BME280;64561;44.018;10.144;2024-03-17T02:43:54;102152.72;;;9.49;100.00
75886;BME280;64561;44.018;10.144;2024-03-17T02:46:21;102152.47;;;9.60;100.00
75886;BME280;64561;44.018;10.144;2024-03-17T02:48:51;102153.72;;;9.69;100.00
75886;BME280;64561;44.018;10.144;2024-03-17T02:51:19;102140.03;;;9.68;100.00
75886;BME280;64561;44.018;10.144;2024-03-17T02:53:47;102147.78;;;9.70;100.00
75886;BME280;64561;44.018;10.144;2024-03-17T02:56:14;102139.31;;;9.71;100.00
75886;BME280;64561;44.018;10.144;2024-03-17T02:58:44;102153.72;;;9.69;100.00
75886;BME280;64561;44.018;10.144;2024-03-17T03:01:12;102142.69;;;9.70;100.00
75886;BME280;64561;44.018;10.144;2024-03-17T03:03:39;102146.34;;;9.75;100.00
75886;BME280;64561;44.018;10.144;2024-03-17T03:06:06;102146.97;;;9.71;100.00
75886;BME280;64561;44.018;10.144;2024-03-17T03:08:35;102140.28;;;9.73;100.00
75886;BME280;64561;44.018;10.144;2024-03-17T03:11:09;102125.38;;;9.64;100.00
75886;BME280;64561;44.018;10.144;2024-03-17T03:13:41;102122.09;;;9.67;100.00
75886;BME280;64561;44.018;10.144;2024-03-17T03:16:10;102127.09;;;9.65;100.00
75886;BME280;64561;44.018;10.144;2024-03-17T03:18:37;102129.09;;;9.71;100.00
75886;BME280;64561;44.018;10.144;2024-03-17T03:21:05;102135.81;;;9.69;100.00
75886;BME280;64561;44.018;10.144;2024-03-17T03:23:32;102126.31;;;9.66;100.00
75886;BME280;64561;44.018;10.144;2024-03-17T03:25:59;102123.53;;;9.61;100.00
75886;BME280;64561;44.018;10.144;2024-03-17T03:28:26;102134.63;;;9.62;100.00
75886;BME280;64561;44.018;10.144;2024-03-17T03:30:53;102133.03;;;9.64;100.00
75886;BME280;64561;44.018;10.144;2024-03-17T03:33:20;102124.41;;;9.62;100.00
75886;BME280;64561;44.018;10.144;2024-03-17T03:35:46;102129.75;;;9.67;100.00
75886;BME280;64561;44.018;10.144;2024-03-17T03:38:14;102135.00;;;9.70;100.00
75886;BME280;64561;44.018;10.144;2024-03-17T03:40:43;102131.44;;;9.66;100.00
75886;BME280;64561;44.018;10.144;2024-03-17T03:43:10;102141.50;;;9.63;100.00
75886;BME280;64561;44.018;10.144;2024-03-17T03:45:36;102143.91;;;9.60;100.00
75886;BME280;64561;44.018;10.144;2024-03-17T03:48:04;102148.94;;;9.58;100.00
75886;BME280;64561;44.018;10.144;2024-03-17T03:50:31;102162.81;;;9.64;100.00
75886;BME280;64561;44.018;10.144;2024-03-17T03:52:57;102171.59;;;9.69;100.00
75886;BME280;64561;44.018;10.144;2024-03-17T03:55:24;102174.31;;;9.72;100.00
75886;BME280;64561;44.018;10.144;2024-03-17T03:57:50;102176.78;;;9.70;100.00
75886;BME280;64561;44.018;10.144;2024-03-17T04:00:19;102170.13;;;9.74;100.00
75886;BME280;64561;44.018;10.144;2024-03-17T04:02:51;102172.69;;;9.74;100.00
75886;BME280;64561;44.018;10.144;2024-03-17T04:05:19;102165.16;;;9.77;100.00
75886;BME280;64561;44.018;10.144;2024-03-17T04:07:46;102160.94;;;9.77;100.00
75886;BME280;64561;44.018;10.144;2024-03-17T04:10:14;102158.47;;;9.79;100.00
75886;BME280;64561;44.018;10.144;2024-03-17T04:12:41;102164.59;;;9.82;100.00
75886;BME280;64561;44.018;10.144;2024-03-17T04:15:08;102157.78;;;9.83;100.00
75886;BME280;64561;44.018;10.144;2024-03-17T04:17:36;102157.59;;;9.78;100.00
75886;BME280;64561;44.018;10.144;2024-03-17T04:20:04;102151.16;;;9.69;100.00
75886;BME280;64561;44.018;10.144;2024-03-17T04:22:34;102160.47;;;9.68;100.00
75886;BME280;64561;44.018;10.144;2024-03-17T04:25:01;102164.72;;;9.68;100.00
75886;BME280;64561;44.018;10.144;2024-03-17T04:27:30;102164.16;;;9.73;100.00
75886;BME280;64561;44.018;10.144;2024-03-17T04:29:58;102153.91;;;9.73;100.00
75886;BME280;64561;44.018;10.144;2024-03-17T04:32:24;102161.97;;;9.81;100.00
75886;BME280;64561;44.018;10.144;2024-03-17T04:34:53;102161.88;;;9.79;100.00
75886;BME280;64561;44.018;10.144;2024-03-17T04:37:19;102172.97;;;9.80;100.00
75886;BME280;64561;44.018;10.144;2024-03-17T04:39:46;102178.50;;;9.88;100.00
75886;BME280;64561;44.018;10.144;2024-03-17T04:42:14;102177.75;;;9.90;100.00
75886;BME280;64561;44.018;10.144;2024-03-17T04:44:42;102170.81;;;9.88;100.00
75886;BME280;64561;44.018;10.144;2024-03-17T04:47:09;102179.50;;;9.91;100.00
75886;BME280;64561;44.018;10.144;2024-03-17T04:52:02;102176.13;;;9.92;100.00
75886;BME280;64561;44.018;10.144;2024-03-17T04:54:28;102177.19;;;9.96;100.00
75886;BME280;64561;44.018;10.144;2024-03-17T04:56:55;102185.22;;;10.03;100.00
75886;BME280;64561;44.018;10.144;2024-03-17T04:59:21;102172.22;;;9.99;100.00
75886;BME280;64561;44.018;10.144;2024-03-17T05:01:47;102193.91;;;10.07;100.00
75886;BME280;64561;44.018;10.144;2024-03-17T05:04:15;102197.47;;;10.11;100.00
75886;BME280;64561;44.018;10.144;2024-03-17T05:06:41;102196.03;;;10.16;100.00
75886;BME280;64561;44.018;10.144;2024-03-17T05:09:13;102199.41;;;10.15;100.00
75886;BME280;64561;44.018;10.144;2024-03-17T05:11:40;102203.97;;;10.22;100.00
75886;BME280;64561;44.018;10.144;2024-03-17T05:14:06;102204.13;;;10.25;100.00
75886;BME280;64561;44.018;10.144;2024-03-17T05:16:32;102209.44;;;10.28;100.00
75886;BME280;64561;44.018;10.144;2024-03-17T05:18:59;102214.69;;;10.31;100.00
75886;BME280;64561;44.018;10.144;2024-03-17T05:21:26;102219.91;;;10.33;100.00
75886;BME280;64561;44.018;10.144;2024-03-17T05:23:57;102223.53;;;10.38;100.00
75886;BME280;64561;44.018;10.144;2024-03-17T05:26:24;102219.44;;;10.41;100.00
75886;BME280;64561;44.018;10.144;2024-03-17T05:28:50;102228.00;;;10.42;100.00
75886;BME280;64561;44.018;10.144;2024-03-17T05:31:17;102220.38;;;10.43;100.00
75886;BME280;64561;44.018;10.144;2024-03-17T05:33:44;102217.19;;;10.47;100.00
75886;BME280;64561;44.018;10.144;2024-03-17T05:36:11;102223.16;;;10.48;100.00
75886;BME280;64561;44.018;10.144;2024-03-17T05:38:37;102220.75;;;10.51;100.00
75886;BME280;64561;44.018;10.144;2024-03-17T05:41:05;102209.34;;;10.44;100.00
75886;BME280;64561;44.018;10.144;2024-03-17T05:43:33;102224.84;;;10.47;100.00
75886;BME280;64561;44.018;10.144;2024-03-17T05:46:07;102221.44;;;10.47;100.00
75886;BME280;64561;44.018;10.144;2024-03-17T05:48:35;102231.28;;;10.39;100.00
75886;BME280;64561;44.018;10.144;2024-03-17T05:51:09;102238.16;;;10.40;100.00
75886;BME280;64561;44.018;10.144;2024-03-17T05:53:36;102236.47;;;10.41;100.00
75886;BME280;64561;44.018;10.144;2024-03-17T05:56:04;102244.91;;;10.38;100.00
75886;BME280;64561;44.018;10.144;2024-03-17T05:58:30;102245.53;;;10.34;100.00
75886;BME280;64561;44.018;10.144;2024-03-17T06:00:57;102247.31;;;10.35;100.00
75886;BME280;64561;44.018;10.144;2024-03-17T06:03:24;102250.03;;;10.22;100.00
75886;BME280;64561;44.018;10.144;2024-03-17T06:05:50;102263.97;;;10.11;100.00
75886;BME280;64561;44.018;10.144;2024-03-17T06:08:17;102268.44;;;10.15;100.00
75886;BME280;64561;44.018;10.144;2024-03-17T06:10:46;102265.31;;;10.20;100.00
75886;BME280;64561;44.018;10.144;2024-03-17T06:13:13;102267.50;;;10.13;100.00
75886;BME280;64561;44.018;10.144;2024-03-17T06:15:46;102268.94;;;10.07;100.00
75886;BME280;64561;44.018;10.144;2024-03-17T06:18:14;102280.13;;;10.10;100.00
75886;BME280;64561;44.018;10.144;2024-03-17T06:20:41;102279.31;;;10.11;100.00
75886;BME280;64561;44.018;10.144;2024-03-17T06:23:12;102281.00;;;10.10;100.00
75886;BME280;64561;44.018;10.144;2024-03-17T06:25:43;102281.09;;;10.12;100.00
75886;BME280;64561;44.018;10.144;2024-03-17T06:28:10;102276.84;;;10.12;100.00
75886;BME280;64561;44.018;10.144;2024-03-17T06:30:44;102282.13;;;10.15;100.00
75886;BME280;64561;44.018;10.144;2024-03-17T06:33:13;102283.44;;;10.25;100.00
75886;BME280;64561;44.018;10.144;2024-03-17T06:35:40;102287.94;;;10.29;100.00
75886;BME280;64561;44.018;10.144;2024-03-17T06:38:06;102280.34;;;10.30;100.00
75886;BME280;64561;44.018;10.144;2024-03-17T06:40:39;102287.44;;;10.36;100.00
75886;BME280;64561;44.018;10.144;2024-03-17T06:43:06;102285.16;;;10.42;100.00
75886;BME280;64561;44.018;10.144;2024-03-17T06:45:32;102282.91;;;10.48;100.00
75886;BME280;64561;44.018;10.144;2024-03-17T06:47:58;102280.63;;;10.55;100.00
75886;BME280;64561;44.018;10.144;2024-03-17T06:50:24;102280.91;;;10.61;100.00
75886;BME280;64561;44.018;10.144;2024-03-17T06:52:51;102270.09;;;10.66;100.00
75886;BME280;64561;44.018;10.144;2024-03-17T06:55:19;102276.50;;;10.76;100.00
75886;BME280;64561;44.018;10.144;2024-03-17T06:57:47;102282.06;;;10.85;100.00
75886;BME280;64561;44.018;10.144;2024-03-17T07:00:14;102278.91;;;10.91;100.00
75886;BME280;64561;44.018;10.144;2024-03-17T07:02:49;102281.03;;;10.99;100.00
75886;BME280;64561;44.018;10.144;2024-03-17T07:05:15;102277.91;;;11.07;100.00
75886;BME280;64561;44.018;10.144;2024-03-17T07:07:44;102283.31;;;11.13;100.00
75886;BME280;64561;44.018;10.144;2024-03-17T07:10:11;102278.47;;;11.19;100.00
75886;BME280;64561;44.018;10.144;2024-03-17T07:12:39;102279.41;;;11.21;100.00
75886;BME280;64561;44.018;10.144;2024-03-17T07:15:05;102283.22;;;11.29;100.00
75886;BME280;64561;44.018;10.144;2024-03-17T07:17:33;102284.44;;;11.37;100.00
75886;BME280;64561;44.018;10.144;2024-03-17T07:19:59;102283.75;;;11.41;100.00
75886;BME280;64561;44.018;10.144;2024-03-17T07:22:27;102285.84;;;11.50;100.00
75886;BME280;64561;44.018;10.144;2024-03-17T07:24:55;102291.25;;;11.56;100.00
75886;BME280;64561;44.018;10.144;2024-03-17T07:27:27;102289.69;;;11.60;100.00
75886;BME280;64561;44.018;10.144;2024-03-17T07:29:53;102290.69;;;11.63;100.00
75886;BME280;64561;44.018;10.144;2024-03-17T07:32:19;102289.91;;;11.64;100.00
75886;BME280;64561;44.018;10.144;2024-03-17T07:34:45;102288.25;;;11.66;100.00
75886;BME280;64561;44.018;10.144;2024-03-17T07:37:12;102293.50;;;11.70;100.00
75886;BME280;64561;44.018;10.144;2024-03-17T07:39:38;102297.06;;;11.73;100.00
75886;BME280;64561;44.018;10.144;2024-03-17T07:42:04;102289.34;;;11.72;100.00
75886;BME280;64561;44.018;10.144;2024-03-17T07:44:32;102298.25;;;11.80;100.00
75886;BME280;64561;44.018;10.144;2024-03-17T07:47:02;102294.13;;;11.83;100.00
75886;BME280;64561;44.018;10.144;2024-03-17T07:49:32;102292.66;;;11.88;100.00
75886;BME280;64561;44.018;10.144;2024-03-17T07:51:58;102293.78;;;11.95;100.00
75886;BME280;64561;44.018;10.144;2024-03-17T07:54:25;102287.91;;;11.98;100.00
75886;BME280;64561;44.018;10.144;2024-03-17T07:56:53;102290.00;;;12.06;100.00
75886;BME280;64561;44.018;10.144;2024-03-17T07:59:21;102284.03;;;12.07;100.00
75886;BME280;64561;44.018;10.144;2024-03-17T08:01:47;102287.69;;;12.12;100.00
75886;BME280;64561;44.018;10.144;2024-03-17T08:04:13;102292.03;;;12.15;100.00
75886;BME280;64561;44.018;10.144;2024-03-17T08:06:39;102284.78;;;12.26;100.00
75886;BME280;64561;44.018;10.144;2024-03-17T08:09:10;102284.78;;;12.26;100.00
75886;BME280;64561;44.018;10.144;2024-03-17T08:11:38;102283.91;;;12.25;100.00
75886;BME280;64561;44.018;10.144;2024-03-17T08:14:09;102287.69;;;12.33;100.00
75886;BME280;64561;44.018;10.144;2024-03-17T08:16:35;102285.34;;;12.40;100.00
75886;BME280;64561;44.018;10.144;2024-03-17T08:19:01;102279.41;;;12.41;100.00
75886;BME280;64561;44.018;10.144;2024-03-17T08:21:29;102285.59;;;12.46;100.00
75886;BME280;64561;44.018;10.144;2024-03-17T08:23:56;102280.63;;;12.50;100.00
75886;BME280;64561;44.018;10.144;2024-03-17T08:26:22;102290.38;;;12.59;100.00
75886;BME280;64561;44.018;10.144;2024-03-17T08:28:48;102288.53;;;12.77;100.00
75886;BME280;64561;44.018;10.144;2024-03-17T08:31:14;102294.09;;;12.88;100.00
75886;BME280;64561;44.018;10.144;2024-03-17T08:33:46;102295.59;;;12.83;100.00
75886;BME280;64561;44.018;10.144;2024-03-17T08:36:16;102293.03;;;12.83;100.00
75886;BME280;64561;44.018;10.144;2024-03-17T08:38:44;102292.84;;;12.78;100.00
75886;BME280;64561;44.018;10.144;2024-03-17T08:41:10;102291.09;;;12.77;100.00
75886;BME280;64561;44.018;10.144;2024-03-17T08:43:37;102282.84;;;12.85;100.00
75886;BME280;64561;44.018;10.144;2024-03-17T08:46:05;102291.56;;;12.90;100.00
75886;BME280;64561;44.018;10.144;2024-03-17T08:48:34;102289.13;;;12.93;100.00
75886;BME280;64561;44.018;10.144;2024-03-17T08:51:03;102292.44;;;12.90;100.00
75886;BME280;64561;44.018;10.144;2024-03-17T08:53:32;102286.31;;;12.87;100.00
75886;BME280;64561;44.018;10.144;2024-03-17T08:55:59;102293.34;;;12.91;100.00
75886;BME280;64561;44.018;10.144;2024-03-17T08:58:26;102295.19;;;12.95;100.00
75886;BME280;64561;44.018;10.144;2024-03-17T09:00:53;102299.69;;;13.00;100.00
75886;BME280;64561;44.018;10.144;2024-03-17T09:03:19;102307.56;;;13.05;100.00
75886;BME280;64561;44.018;10.144;2024-03-17T09:05:47;102304.13;;;13.04;100.00
75886;BME280;64561;44.018;10.144;2024-03-17T09:08:17;102305.06;;;13.07;100.00
75886;BME280;64561;44.018;10.144;2024-03-17T09:10:49;102305.06;;;13.07;100.00
75886;BME280;64561;44.018;10.144;2024-03-17T09:13:21;102296.19;;;12.98;100.00
75886;BME280;64561;44.018;10.144;2024-03-17T09:16:00;102303.88;;;12.98;100.00
75886;BME280;64561;44.018;10.144;2024-03-17T09:18:28;102306.53;;;13.00;100.00
75886;BME280;64561;44.018;10.144;2024-03-17T09:21:04;102293.69;;;13.00;100.00
75886;BME280;64561;44.018;10.144;2024-03-17T09:23:31;102303.06;;;12.99;100.00
75886;BME280;64561;44.018;10.144;2024-03-17T09:26:02;102299.75;;;13.02;100.00
75886;BME280;64561;44.018;10.144;2024-03-17T09:28:30;102297.28;;;13.05;100.00
75886;BME280;64561;44.018;10.144;2024-03-17T09:30:57;102296.63;;;13.11;100.00
75886;BME280;64561;44.018;10.144;2024-03-17T09:33:25;102294.25;;;13.15;100.00
75886;BME280;64561;44.018;10.144;2024-03-17T09:35:56;102296.88;;;13.17;100.00
75886;BME280;64561;44.018;10.144;2024-03-17T09:38:23;102295.28;;;13.20;100.00
75886;BME280;64561;44.018;10.144;2024-03-17T09:40:50;102302.56;;;13.31;100.00
75886;BME280;64561;44.018;10.144;2024-03-17T09:43:21;102303.94;;;13.45;100.00
75886;BME280;64561;44.018;10.144;2024-03-17T09:45:49;102299.06;;;13.53;100.00
75886;BME280;64561;44.018;10.144;2024-03-17T09:48:17;102304.91;;;13.48;100.00
75886;BME280;64561;44.018;10.144;2024-03-17T09:53:16;102297.25;;;13.50;100.00
75886;BME280;64561;44.018;10.144;2024-03-17T09:55:43;102306.34;;;13.64;100.00
75886;BME280;64561;44.018;10.144;2024-03-17T09:58:17;102306.34;;;13.64;100.00
75886;BME280;64561;44.018;10.144;2024-03-17T10:00:46;102309.56;;;13.59;100.00
75886;BME280;64561;44.018;10.144;2024-03-17T10:06:13;102301.94;;;13.62;100.00
75886;BME280;64561;44.018;10.144;2024-03-17T10:08:48;102305.72;;;13.71;100.00
75886;BME280;64561;44.018;10.144;2024-03-17T10:11:16;102306.66;;;13.73;100.00
75886;BME280;64561;44.018;10.144;2024-03-17T10:13:43;102306.09;;;13.82;100.00
75886;BME280;64561;44.018;10.144;2024-03-17T10:16:22;102302.75;;;13.85;100.00
75886;BME280;64561;44.018;10.144;2024-03-17T10:18:51;102306.38;;;13.90;100.00
75886;BME280;64561;44.018;10.144;2024-03-17T10:21:28;102312.28;;;13.87;100.00
75886;BME280;64561;44.018;10.144;2024-03-17T10:24:23;102311.63;;;13.93;100.00
75886;BME280;64561;44.018;10.144;2024-03-17T10:26:52;102307.16;;;13.87;100.00
75886;BME280;64561;44.018;10.144;2024-03-17T10:31:59;102307.56;;;14.00;100.00
75886;BME280;64561;44.018;10.144;2024-03-17T10:34:29;102305.00;;;14.00;100.00
75886;BME280;64561;44.018;10.144;2024-03-17T10:37:09;102308.56;;;14.05;100.00
75886;BME280;64561;44.018;10.144;2024-03-17T10:39:40;102312.16;;;14.08;100.00
75886;BME280;64561;44.018;10.144;2024-03-17T10:42:08;102312.59;;;14.22;100.00
75886;BME280;64561;44.018;10.144;2024-03-17T10:44:35;102316.28;;;14.30;100.00
75886;BME280;64561;44.018;10.144;2024-03-17T10:47:03;102320.66;;;14.33;100.00
75886;BME280;64561;44.018;10.144;2024-03-17T10:49:32;102302.94;;;14.42;100.00
75886;BME280;64561;44.018;10.144;2024-03-17T10:52:01;102314.88;;;14.40;100.00
75886;BME280;64561;44.018;10.144;2024-03-17T10:54:28;102310.66;;;14.42;100.00
75886;BME280;64561;44.018;10.144;2024-03-17T10:56:56;102309.94;;;14.46;100.00
75886;BME280;64561;44.018;10.144;2024-03-17T10:59:40;102300.47;;;14.45;100.00
75886;BME280;64561;44.018;10.144;2024-03-17T11:02:24;102302.63;;;14.58;100.00
75886;BME280;64561;44.018;10.144;2024-03-17T11:05:01;102300.88;;;14.57;100.00
75886;BME280;64561;44.018;10.144;2024-03-17T11:07:31;102297.56;;;14.61;100.00
75886;BME280;64561;44.018;10.144;2024-03-17T11:09:59;102295.81;;;14.60;100.00
75886;BME280;64561;44.018;10.144;2024-03-17T11:12:49;102304.50;;;14.62;100.00
75886;BME280;64561;44.018;10.144;2024-03-17T11:17:47;102299.16;;;14.56;100.00
75886;BME280;64561;44.018;10.144;2024-03-17T11:20:21;102295.06;;;14.63;100.00
75886;BME280;64561;44.018;10.144;2024-03-17T11:22:50;102296.69;;;14.61;100.00
75886;BME280;64561;44.018;10.144;2024-03-17T11:46:58;102250.75;;;15.05;100.00
75886;BME280;64561;44.018;10.144;2024-03-17T11:52:10;102246.41;;;15.02;99.09
75886;BME280;64561;44.018;10.144;2024-03-17T11:54:42;102243.41;;;14.89;99.80
75886;BME280;64561;44.018;10.144;2024-03-17T11:57:10;102239.94;;;14.86;100.00
75886;BME280;64561;44.018;10.144;2024-03-17T11:59:38;102235.66;;;14.89;99.78
75886;BME280;64561;44.018;10.144;2024-03-17T12:02:21;102226.16;;;14.86;100.00
75886;BME280;64561;44.018;10.144;2024-03-17T12:04:49;102215.91;;;14.89;99.34
75886;BME280;64561;44.018;10.144;2024-03-17T12:07:18;102222.44;;;15.06;100.00
75886;BME280;64561;44.018;10.144;2024-03-17T12:09:45;102217.44;;;15.13;97.52
75886;BME280;64561;44.018;10.144;2024-03-17T12:12:18;102215.13;;;15.22;96.55
75886;BME280;64561;44.018;10.144;2024-03-17T12:14:46;102212.47;;;15.19;96.14
75886;BME280;64561;44.018;10.144;2024-03-17T12:17:15;102212.72;;;15.28;93.39
75886;BME280;64561;44.018;10.144;2024-03-17T12:19:45;102206.50;;;15.20;92.85
75886;BME280;64561;44.018;10.144;2024-03-17T12:22:20;102213.44;;;15.22;93.07
75886;BME280;64561;44.018;10.144;2024-03-17T12:24:49;102214.16;;;15.18;94.15
75886;BME280;64561;44.018;10.144;2024-03-17T12:27:17;102215.19;;;15.25;93.05
75886;BME280;64561;44.018;10.144;2024-03-17T12:29:45;102218.00;;;15.32;93.25
75886;BME280;64561;44.018;10.144;2024-03-17T12:32:25;102212.94;;;15.37;92.67
75886;BME280;64561;44.018;10.144;2024-03-17T12:34:53;102212.13;;;15.38;93.82
75886;BME280;64561;44.018;10.144;2024-03-17T12:37:27;102215.81;;;15.46;91.63
75886;BME280;64561;44.018;10.144;2024-03-17T12:40:03;102206.97;;;15.38;93.79
75886;BME280;64561;44.018;10.144;2024-03-17T12:42:30;102188.31;;;15.48;93.10
75886;BME280;64561;44.018;10.144;2024-03-17T12:44:59;102182.06;;;15.40;93.41
75886;BME280;64561;44.018;10.144;2024-03-17T12:47:31;102186.97;;;15.29;92.68
75886;BME280;64561;44.018;10.144;2024-03-17T12:49:58;102176.66;;;15.29;94.39
75886;BME280;64561;44.018;10.144;2024-03-17T12:52:33;102166.50;;;15.36;95.32
75886;BME280;64561;44.018;10.144;2024-03-17T12:55:07;102171.97;;;15.48;93.89
75886;BME280;64561;44.018;10.144;2024-03-17T13:00:47;102157.06;;;15.69;92.59
75886;BME280;64561;44.018;10.144;2024-03-17T13:03:41;102148.72;;;15.80;92.53
75886;BME280;64561;44.018;10.144;2024-03-17T13:06:23;102153.97;;;15.84;92.33
75886;BME280;64561;44.018;10.144;2024-03-17T13:08:52;102145.50;;;15.91;92.24
75886;BME280;64561;44.018;10.144;2024-03-17T13:11:18;102141.28;;;15.93;90.99
75886;BME280;64561;44.018;10.144;2024-03-17T13:13:44;102135.13;;;15.88;91.36
75886;BME280;64561;44.018;10.144;2024-03-17T13:16:11;102127.69;;;16.00;91.47
75886;BME280;64561;44.018;10.144;2024-03-17T13:18:40;102133.00;;;16.07;90.00
75886;BME280;64561;44.018;10.144;2024-03-17T13:21:07;102137.22;;;16.05;90.06